Time;durP1;ratioP1;P1;durP2;ratioP2;P2;SDS_P1;SDS_P2;PMS_P1;PMS_P2;Temp;Humidity;BMP_temperature;BMP_pressure;BME280_temperature;BME280_humidity;BME280_pressure;Samples;Min_cycle;Max_cycle;Signal;HPM_P1;HPM_P2
2023/03/13 00:01:17;;;;;;;;;;;;;;;;;;5004831;28;19937;-78
2023/03/13 00:03:43;;;;;;;;;;;;;;;;;;4976681;28;20138;-79
2023/03/13 00:06:09;;;;;;;;;;;;;;;;;;5003764;28;19914;-78
2023/03/13 00:08:34;;;;;;;;;;;;;;;;;;4989901;28;19918;-78
2023/03/13 00:11:00;;;;;;;;;;;;;;;;;;5009436;23;20269;-76
2023/03/13 00:13:25;;;;;;;;;;;;;;;;;;4982081;28;19968;-76
2023/03/13 00:15:51;;;;;;;;;;;;;;;;;;4992887;28;19918;-76
2023/03/13 00:18:16;;;;;;;;;;;;;;;;;;4992317;28;20285;-76
2023/03/13 00:20:41;;;;;;;;;;;;;;;;;;4995999;28;19914;-77
2023/03/13 00:23:07;;;;;;;;;;;;;;;;;;5014585;28;19921;-77
2023/03/13 00:25:32;;;;;;;;;;;;;;;;;;5012970;28;20016;-77
2023/03/13 00:27:57;;;;;;;;;;;;;;;;;;5013603;28;19917;-77
2023/03/13 00:30:23;;;;;;;;;;;;;;;;;;4995739;28;19914;-77
2023/03/13 00:32:48;;;;;;;;;;;;;;;;;;5006277;28;19921;-77
2023/03/13 00:35:14;;;;;;;;;;;;;;;;;;5012934;28;20053;-76
2023/03/13 00:37:39;;;;;;;;;;;;;;;;;;5012103;28;20377;-76
2023/03/13 00:40:05;;;;;;;;;;;;;;;;;;5012084;28;19913;-76
2023/03/13 00:42:30;;;;;;;;;;;;;;;;;;5013300;28;19918;-77
2023/03/13 00:44:55;;;;;;;;;;;;;;;;;;5005023;28;19961;-76
2023/03/13 00:47:22;;;;;;;;;;;;;;;;;;5012691;28;19921;-76
2023/03/13 00:49:47;;;;;;;;;;;;;;;;;;5013461;28;19921;-77
2023/03/13 00:52:13;;;;;;;;;;;;;;;;;;5012707;28;19913;-77
2023/03/13 00:54:38;;;;;;;;;;;;;;;;;;5007241;28;20380;-77
2023/03/13 00:57:03;;;;;;;;;;;;;;;;;;5013729;28;19913;-77
2023/03/13 00:59:29;;;;;;;;;;;;;;;;;;5013296;28;19936;-76
2023/03/13 01:01:56;;;;;;;;;;;;;;;;;;5011209;28;20005;-76
2023/03/13 01:04:21;;;;;;;;;;;;;;;;;;5011599;28;20064;-76
2023/03/13 01:06:48;;;;;;;;;;;;;;;;;;5009984;28;20401;-77
2023/03/13 01:09:14;;;;;;;;;;;;;;;;;;5006509;28;19960;-77
2023/03/13 01:11:40;;;;;;;;;;;;;;;;;;5012877;28;20320;-77
2023/03/13 01:14:05;;;;;;;;;;;;;;;;;;5011411;28;19913;-76
2023/03/13 01:16:31;;;;;;;;;;;;;;;;;;5003149;28;19910;-76
2023/03/13 01:18:56;;;;;;;;;;;;;;;;;;5011316;28;19913;-76
2023/03/13 01:21:21;;;;;;;;;;;;;;;;;;5011276;28;19913;-77
2023/03/13 01:23:47;;;;;;;;;;;;;;;;;;5011199;28;20341;-77
2023/03/13 01:26:13;;;;;;;;;;;;;;;;;;5010911;28;19946;-76
2023/03/13 01:28:38;;;;;;;;;;;;;;;;;;5011254;28;19960;-77
2023/03/13 01:31:03;;;;;;;;;;;;;;;;;;5011125;28;19933;-77
2023/03/13 01:33:29;;;;;;;;;;;;;;;;;;5014206;28;20032;-76
2023/03/13 01:35:54;;;;;;;;;;;;;;;;;;5014826;28;19924;-77
2023/03/13 01:38:20;;;;;;;;;;;;;;;;;;5016352;28;19996;-76
2023/03/13 01:40:45;;;;;;;;;;;;;;;;;;5012770;28;20292;-77
2023/03/13 01:43:10;;;;;;;;;;;;;;;;;;5008673;28;20046;-76
2023/03/13 01:45:36;;;;;;;;;;;;;;;;;;5014992;28;19924;-77
2023/03/13 01:48:01;;;;;;;;;;;;;;;;;;5011008;28;19957;-76
2023/03/13 01:50:43;;;;;;;;;;;;;;;;;;4983604;28;19963;-77
2023/03/13 01:53:17;;;;;;;;;;;;;;;;;;5011170;28;20415;-77
2023/03/13 01:55:43;;;;;;;;;;;;;;;;;;5012201;28;20004;-77
2023/03/13 01:58:08;;;;;;;;;;;;;;;;;;5015862;28;20295;-76
2023/03/13 02:00:33;;;;;;;;;;;;;;;;;;5007429;28;20388;-77
2023/03/13 02:02:59;;;;;;;;;;;;;;;;;;4993364;28;19965;-77
2023/03/13 02:05:24;;;;;;;;;;;;;;;;;;5011331;28;19924;-77
2023/03/13 02:07:49;;;;;;;;;;;;;;;;;;5015260;28;20387;-77
2023/03/13 02:10:15;;;;;;;;;;;;;;;;;;5014165;28;19964;-76
2023/03/13 02:12:41;;;;;;;;;;;;;;;;;;5011113;28;20324;-76
2023/03/13 02:15:06;;;;;;;;;;;;;;;;;;5016377;28;19917;-76
2023/03/13 02:17:31;;;;;;;;;;;;;;;;;;5025850;28;19953;-76
2023/03/13 02:19:57;;;;;;;;;;;;;;;;;;5013862;28;19940;-76
2023/03/13 02:22:22;;;;;;;;;;;;;;;;;;5015216;28;19914;-76
2023/03/13 02:24:48;;;;;;;;;;;;;;;;;;5013582;28;19933;-77
2023/03/13 02:27:13;;;;;;;;;;;;;;;;;;5013782;28;19910;-77
2023/03/13 02:29:40;;;;;;;;;;;;;;;;;;4989776;28;20052;-77
2023/03/13 02:32:05;;;;;;;;;;;;;;;;;;4997027;28;20000;-77
2023/03/13 02:34:30;;;;;;;;;;;;;;;;;;5015193;28;19917;-76
2023/03/13 02:36:56;;;;;;;;;;;;;;;;;;5014902;28;19914;-77
2023/03/13 02:39:22;;;;;;;;;;;;;;;;;;5013899;28;19936;-77
2023/03/13 02:41:47;;;;;;;;;;;;;;;;;;5013747;28;19925;-77
2023/03/13 02:44:12;;;;;;;;;;;;;;;;;;5013664;28;19964;-77
2023/03/13 02:46:38;;;;;;;;;;;;;;;;;;5013265;28;19917;-77
2023/03/13 02:49:03;;;;;;;;;;;;;;;;;;5014703;28;19918;-77
2023/03/13 02:51:29;;;;;;;;;;;;;;;;;;5016196;28;19917;-77
2023/03/13 02:53:55;;;;;;;;;;;;;;;;;;4995437;28;19993;-77
2023/03/13 02:56:20;;;;;;;;;;;;;;;;;;5010242;28;20000;-77
2023/03/13 02:58:46;;;;;;;;;;;;;;;;;;5013338;28;19948;-77
2023/03/13 03:01:12;;;;;;;;;;;;;;;;;;5013222;28;20391;-76
2023/03/13 03:03:39;;;;;;;;;;;;;;;;;;5013185;28;20003;-76
2023/03/13 03:06:04;;;;;;;;;;;;;;;;;;5009839;28;20369;-77
2023/03/13 03:08:30;;;;;;;;;;;;;;;;;;4993698;28;19924;-76
2023/03/13 03:10:55;;;;;;;;;;;;;;;;;;5013327;28;20292;-77
2023/03/13 03:13:21;;;;;;;;;;;;;;;;;;5013135;28;19921;-76
2023/03/13 03:15:47;;;;;;;;;;;;;;;;;;5014794;28;20293;-77
2023/03/13 03:18:12;;;;;;;;;;;;;;;;;;5013619;28;19909;-76
2023/03/13 03:20:37;;;;;;;;;;;;;;;;;;5033176;28;19937;-76
2023/03/13 03:23:03;;;;;;;;;;;;;;;;;;5038578;28;19928;-76
2023/03/13 03:25:28;;;;;;;;;;;;;;;;;;4999460;28;20455;-77
2023/03/13 03:27:54;;;;;;;;;;;;;;;;;;5038504;28;19910;-77
2023/03/13 03:30:19;;;;;;;;;;;;;;;;;;5038794;28;19918;-76
2023/03/13 03:32:44;;;;;;;;;;;;;;;;;;5017789;28;19901;-76
2023/03/13 03:35:10;;;;;;;;;;;;;;;;;;5037456;28;19909;-77
2023/03/13 03:37:35;;;;;;;;;;;;;;;;;;5035871;28;19913;-76
2023/03/13 03:40:04;;;;;;;;;;;;;;;;;;4996578;28;20009;-77
2023/03/13 03:42:30;;;;;;;;;;;;;;;;;;5012698;28;19913;-76
2023/03/13 03:44:55;;;;;;;;;;;;;;;;;;4993645;28;19918;-76
2023/03/13 03:47:21;;;;;;;;;;;;;;;;;;5009012;28;19962;-78
2023/03/13 03:49:46;;;;;;;;;;;;;;;;;;5002192;28;19914;-77
2023/03/13 03:52:13;;;;;;;;;;;;;;;;;;4987800;28;19914;-77
2023/03/13 03:54:40;;;;;;;;;;;;;;;;;;5014272;28;20375;-77
2023/03/13 03:57:06;;;;;;;;;;;;;;;;;;5015885;28;19913;-76
2023/03/13 03:59:32;;;;;;;;;;;;;;;;;;5008307;28;19964;-77
2023/03/13 04:02:02;;;;;;;;;;;;;;;;;;5007859;28;20020;-77
2023/03/13 04:04:29;;;;;;;;;;;;;;;;;;5001258;28;19917;-76
2023/03/13 04:07:00;;;;;;;;;;;;;;;;;;4999831;28;20388;-77
2023/03/13 04:09:27;;;;;;;;;;;;;;;;;;5013658;28;20407;-77
2023/03/13 04:11:52;;;;;;;;;;;;;;;;;;5014391;28;19917;-77
2023/03/13 04:14:18;;;;;;;;;;;;;;;;;;4998761;28;19953;-78
2023/03/13 04:16:44;;;;;;;;;;;;;;;;;;5011157;28;19921;-76
2023/03/13 04:19:10;;;;;;;;;;;;;;;;;;5007417;28;19945;-76
2023/03/13 04:21:35;;;;;;;;;;;;;;;;;;4994529;28;19921;-77
2023/03/13 04:24:08;;;;;;;;;;;;;;;;;;4997011;28;20011;-77
2023/03/13 04:26:38;;;;;;;;;;;;;;;;;;5012221;28;19940;-75
2023/03/13 04:29:05;;;;;;;;;;;;;;;;;;5013776;28;20000;-75
2023/03/13 04:31:44;;;;;;;;;;;;;;;;;;4995955;28;19917;-77
2023/03/13 04:34:36;;;;;;;;;;;;;;;;;;4997546;28;20063;-77
2023/03/13 04:37:10;;;;;;;;;;;;;;;;;;5013363;28;19913;-77
2023/03/13 04:39:38;;;;;;;;;;;;;;;;;;5013571;28;19992;-77
2023/03/13 04:42:15;;;;;;;;;;;;;;;;;;4996174;28;20038;-76
2023/03/13 04:45:12;;;;;;;;;;;;;;;;;;4969423;28;19940;-76
2023/03/13 04:47:53;;;;;;;;;;;;;;;;;;5005663;28;19914;-77
2023/03/13 04:50:37;;;;;;;;;;;;;;;;;;4998152;28;19914;-77
2023/03/13 04:53:28;;;;;;;;;;;;;;;;;;5011295;28;19940;-77
2023/03/13 04:56:13;;;;;;;;;;;;;;;;;;5014873;28;20368;-76
2023/03/13 04:58:52;;;;;;;;;;;;;;;;;;5016102;28;19919;-76
2023/03/13 05:01:33;;;;;;;;;;;;;;;;;;5015915;28;19914;-76
2023/03/13 05:04:10;;;;;;;;;;;;;;;;;;5017657;28;19922;-77
2023/03/13 05:06:54;;;;;;;;;;;;;;;;;;5010192;28;19961;-77
2023/03/13 05:09:35;;;;;;;;;;;;;;;;;;5019926;28;19920;-77
2023/03/13 05:12:27;;;;;;;;;;;;;;;;;;5019136;28;19918;-76
2023/03/13 05:15:18;;;;;;;;;;;;;;;;;;5006979;28;19917;-76
2023/03/13 05:18:03;;;;;;;;;;;;;;;;;;5016863;28;19914;-77
2023/03/13 05:20:43;;;;;;;;;;;;;;;;;;5018079;28;19920;-77
2023/03/13 05:23:27;;;;;;;;;;;;;;;;;;5019557;28;19959;-77
2023/03/13 05:26:15;;;;;;;;;;;;;;;;;;4999759;28;19971;-76
2023/03/13 05:28:53;;;;;;;;;;;;;;;;;;5017782;28;19923;-76
2023/03/13 05:31:28;;;;;;;;;;;;;;;;;;4998051;28;20016;-76
2023/03/13 05:34:12;;;;;;;;;;;;;;;;;;5010659;28;20008;-77
2023/03/13 05:37:07;;;;;;;;;;;;;;;;;;5006227;28;19973;-77
2023/03/13 05:39:51;;;;;;;;;;;;;;;;;;5001272;28;19956;-77
2023/03/13 05:42:42;;;;;;;;;;;;;;;;;;4979657;28;19913;-77
2023/03/13 05:45:21;;;;;;;;;;;;;;;;;;5015132;28;20400;-76
2023/03/13 05:47:57;;;;;;;;;;;;;;;;;;5007793;28;19914;-76
2023/03/13 05:50:41;;;;;;;;;;;;;;;;;;5015886;28;19949;-75
2023/03/13 05:53:33;;;;;;;;;;;;;;;;;;5000096;28;20012;-77
2023/03/13 05:56:21;;;;;;;;;;;;;;;;;;5007455;28;19921;-76
2023/03/13 05:59:11;;;;;;;;;;;;;;;;;;4982602;28;19921;-77
2023/03/13 06:01:42;;;;;;;;;;;;;;;;;;5014468;28;19956;-76
2023/03/13 06:04:18;;;;;;;;;;;;;;;;;;4995325;28;19921;-76
2023/03/13 06:06:44;;;;;;;;;;;;;;;;;;5013390;28;19914;-77
2023/03/13 06:09:10;;;;;;;;;;;;;;;;;;5014991;28;20395;-77
2023/03/13 06:11:36;;;;;;;;;;;;;;;;;;4996233;28;19924;-77
2023/03/13 06:14:03;;;;;;;;;;;;;;;;;;5015113;28;19953;-77
2023/03/13 06:16:36;;;;;;;;;;;;;;;;;;4999429;28;19939;-77
2023/03/13 06:19:17;;;;;;;;;;;;;;;;;;5014325;28;19920;-76
2023/03/13 06:21:42;;;;;;;;;;;;;;;;;;4997918;28;19913;-77
2023/03/13 06:24:08;;;;;;;;;;;;;;;;;;5015501;28;20301;-77
2023/03/13 06:26:33;;;;;;;;;;;;;;;;;;5014811;28;19916;-77
2023/03/13 06:28:58;;;;;;;;;;;;;;;;;;4987240;28;19914;-76
2023/03/13 06:31:24;;;;;;;;;;;;;;;;;;5011698;28;19914;-78
2023/03/13 06:33:49;;;;;;;;;;;;;;;;;;5013921;28;19913;-77
2023/03/13 06:36:15;;;;;;;;;;;;;;;;;;5014242;28;19917;-77
2023/03/13 06:38:40;;;;;;;;;;;;;;;;;;5007485;28;19914;-76
2023/03/13 06:41:06;;;;;;;;;;;;;;;;;;5014012;28;19913;-77
2023/03/13 06:43:31;;;;;;;;;;;;;;;;;;5013969;28;19967;-75
2023/03/13 06:45:56;;;;;;;;;;;;;;;;;;4994009;28;19918;-77
2023/03/13 06:48:22;;;;;;;;;;;;;;;;;;5009725;28;20408;-77
2023/03/13 06:50:47;;;;;;;;;;;;;;;;;;5005503;28;20500;-76
2023/03/13 06:53:13;;;;;;;;;;;;;;;;;;4997894;28;19920;-77
2023/03/13 06:55:38;;;;;;;;;;;;;;;;;;5007037;28;20269;-76
2023/03/13 06:58:04;;;;;;;;;;;;;;;;;;5016041;28;19948;-76
2023/03/13 07:00:29;;;;;;;;;;;;;;;;;;4995671;28;20393;-77
2023/03/13 07:02:54;;;;;;;;;;;;;;;;;;5017765;28;19913;-76
2023/03/13 07:05:20;;;;;;;;;;;;;;;;;;5019542;28;19963;-77
2023/03/13 07:07:45;;;;;;;;;;;;;;;;;;5022241;28;19913;-76
2023/03/13 07:10:11;;;;;;;;;;;;;;;;;;5016474;28;19914;-76
2023/03/13 07:12:36;;;;;;;;;;;;;;;;;;5034469;28;19917;-76
2023/03/13 07:15:01;;;;;;;;;;;;;;;;;;5035808;28;19965;-76
2023/03/13 07:17:27;;;;;;;;;;;;;;;;;;5034271;28;19980;-77
2023/03/13 07:19:52;;;;;;;;;;;;;;;;;;5033701;28;19917;-75
2023/03/13 07:22:18;;;;;;;;;;;;;;;;;;5036536;28;19941;-77
2023/03/13 07:24:43;;;;;;;;;;;;;;;;;;5026775;28;19993;-77
2023/03/13 07:27:08;;;;;;;;;;;;;;;;;;5019115;28;19920;-77
2023/03/13 07:29:34;;;;;;;;;;;;;;;;;;5017549;28;20380;-77
2023/03/13 07:31:59;;;;;;;;;;;;;;;;;;5016606;28;19913;-77
2023/03/13 07:34:25;;;;;;;;;;;;;;;;;;5015332;28;20004;-77
2023/03/13 07:36:50;;;;;;;;;;;;;;;;;;5013568;28;19913;-75
2023/03/13 07:39:15;;;;;;;;;;;;;;;;;;5006882;28;20019;-76
2023/03/13 07:41:41;;;;;;;;;;;;;;;;;;5013717;28;20369;-76
2023/03/13 07:44:06;;;;;;;;;;;;;;;;;;4986553;28;19925;-76
2023/03/13 07:46:32;;;;;;;;;;;;;;;;;;5012922;28;19988;-77
2023/03/13 07:48:57;;;;;;;;;;;;;;;;;;5011029;28;20277;-77
2023/03/13 07:51:23;;;;;;;;;;;;;;;;;;5009848;28;19913;-77
2023/03/13 07:53:49;;;;;;;;;;;;;;;;;;5015009;28;19917;-77
2023/03/13 07:56:14;;;;;;;;;;;;;;;;;;5006960;28;19921;-77
2023/03/13 07:58:40;;;;;;;;;;;;;;;;;;5009982;28;20296;-77
2023/03/13 08:01:05;;;;;;;;;;;;;;;;;;4999967;28;19927;-76
2023/03/13 08:03:31;;;;;;;;;;;;;;;;;;5014373;28;20019;-76
2023/03/13 08:05:56;;;;;;;;;;;;;;;;;;5010332;28;19924;-76
2023/03/13 08:08:21;;;;;;;;;;;;;;;;;;5012597;28;19913;-76
2023/03/13 08:10:47;;;;;;;;;;;;;;;;;;5012640;28;19914;-76
2023/03/13 08:13:12;;;;;;;;;;;;;;;;;;5013926;28;19987;-77
2023/03/13 08:15:38;;;;;;;;;;;;;;;;;;5012858;28;19917;-77
2023/03/13 08:18:03;;;;;;;;;;;;;;;;;;5013372;28;19996;-77
2023/03/13 08:20:28;;;;;;;;;;;;;;;;;;5012515;28;19914;-78
2023/03/13 08:22:54;;;;;;;;;;;;;;;;;;5002487;28;20364;-78
2023/03/13 08:25:19;;;;;;;;;;;;;;;;;;5008642;28;19928;-75
2023/03/13 08:27:45;;;;;;;;;;;;;;;;;;5005573;28;19960;-77
2023/03/13 08:30:10;;;;;;;;;;;;;;;;;;5012188;28;19913;-77
2023/03/13 08:32:36;;;;;;;;;;;;;;;;;;5013816;28;19928;-77
2023/03/13 08:35:01;;;;;;;;;;;;;;;;;;5013282;28;20258;-77
2023/03/13 08:37:26;;;;;;;;;;;;;;;;;;5012640;28;19976;-77
2023/03/13 08:39:55;;;;;;;;;;;;;;;;;;5011430;28;19913;-76
2023/03/13 08:42:20;;;;;;;;;;;;;;;;;;5012700;28;19920;-75
2023/03/13 08:44:45;;;;;;;;;;;;;;;;;;5011967;28;19917;-77
2023/03/13 08:47:11;;;;;;;;;;;;;;;;;;5008401;28;20389;-77
2023/03/13 08:49:36;;;;;;;;;;;;;;;;;;5012142;28;19985;-77
2023/03/13 08:52:01;;;;;;;;;;;;;;;;;;5012903;28;19913;-76
2023/03/13 08:54:27;;;;;;;;;;;;;;;;;;5012973;28;19925;-77
2023/03/13 08:56:52;;;;;;;;;;;;;;;;;;5012903;28;20028;-77
2023/03/13 08:59:17;;;;;;;;;;;;;;;;;;5012062;28;20394;-77
2023/03/13 09:01:43;;;;;;;;;;;;;;;;;;5012843;28;19913;-77
2023/03/13 09:04:08;;;;;;;;;;;;;;;;;;5003795;28;19928;-77
2023/03/13 09:06:34;;;;;;;;;;;;;;;;;;5004705;28;19914;-77
2023/03/13 09:08:59;;;;;;;;;;;;;;;;;;5006956;28;20340;-78
2023/03/13 09:11:24;;;;;;;;;;;;;;;;;;5003555;28;19918;-77
2023/03/13 09:13:50;;;;;;;;;;;;;;;;;;4992586;28;19914;-77
2023/03/13 09:16:15;;;;;;;;;;;;;;;;;;5003197;28;19913;-78
2023/03/13 09:18:41;;;;;;;;;;;;;;;;;;5018410;28;19917;-77
2023/03/13 09:21:06;;;;;;;;;;;;;;;;;;4995202;28;19960;-76
2023/03/13 09:23:31;;;;;;;;;;;;;;;;;;4992576;28;19921;-77
2023/03/13 09:25:57;;;;;;;;;;;;;;;;;;5013247;28;20005;-77
2023/03/13 09:28:22;;;;;;;;;;;;;;;;;;5013019;28;20381;-77
2023/03/13 09:30:51;;;;;;;;;;;;;;;;;;5012878;28;19921;-77
2023/03/13 09:33:16;;;;;;;;;;;;;;;;;;4995133;28;19910;-76
2023/03/13 09:35:42;;;;;;;;;;;;;;;;;;5011454;28;19968;-77
2023/03/13 09:38:08;;;;;;;;;;;;;;;;;;5011436;28;19913;-77
2023/03/13 09:40:33;;;;;;;;;;;;;;;;;;4995038;28;20353;-75
2023/03/13 09:42:58;;;;;;;;;;;;;;;;;;5011540;28;20000;-77
2023/03/13 09:45:24;;;;;;;;;;;;;;;;;;5012294;28;19918;-76
2023/03/13 09:47:49;;;;;;;;;;;;;;;;;;5012506;28;20435;-76
2023/03/13 09:50:15;;;;;;;;;;;;;;;;;;5013265;28;20389;-77
2023/03/13 09:52:40;;;;;;;;;;;;;;;;;;4998356;28;19914;-77
2023/03/13 09:55:05;;;;;;;;;;;;;;;;;;5016662;28;20388;-77
2023/03/13 09:57:31;;;;;;;;;;;;;;;;;;5016252;28;20011;-75
2023/03/13 09:59:56;;;;;;;;;;;;;;;;;;5015243;28;19921;-74
2023/03/13 10:02:21;;;;;;;;;;;;;;;;;;5016759;28;19917;-76
2023/03/13 10:04:47;;;;;;;;;;;;;;;;;;5004469;28;20399;-78
2023/03/13 10:07:13;;;;;;;;;;;;;;;;;;5019137;28;19914;-75
2023/03/13 10:09:39;;;;;;;;;;;;;;;;;;5010174;28;19923;-75
2023/03/13 10:12:05;;;;;;;;;;;;;;;;;;5014724;28;19918;-76
2023/03/13 10:14:30;;;;;;;;;;;;;;;;;;5015153;28;19913;-77
2023/03/13 10:16:56;;;;;;;;;;;;;;;;;;5010799;28;19922;-77
2023/03/13 10:19:21;;;;;;;;;;;;;;;;;;5015519;28;20007;-77
2023/03/13 10:21:47;;;;;;;;;;;;;;;;;;5015556;28;20028;-77
2023/03/13 10:24:12;;;;;;;;;;;;;;;;;;5016016;28;19924;-77
2023/03/13 10:26:37;;;;;;;;;;;;;;;;;;4991162;28;19952;-74
2023/03/13 10:29:03;;;;;;;;;;;;;;;;;;4997859;28;19914;-76
2023/03/13 10:31:28;;;;;;;;;;;;;;;;;;5015245;28;19921;-76
2023/03/13 10:33:53;;;;;;;;;;;;;;;;;;5019817;28;19964;-75
2023/03/13 10:36:19;;;;;;;;;;;;;;;;;;5025751;28;19918;-77
2023/03/13 10:38:44;;;;;;;;;;;;;;;;;;5028656;28;20368;-77
2023/03/13 10:41:10;;;;;;;;;;;;;;;;;;5034470;28;19973;-76
2023/03/13 10:43:35;;;;;;;;;;;;;;;;;;5032063;28;19921;-76
2023/03/13 10:46:02;;;;;;;;;;;;;;;;;;5030294;28;19974;-76
2023/03/13 10:48:28;;;;;;;;;;;;;;;;;;5033156;28;19914;-75
2023/03/13 10:50:53;;;;;;;;;;;;;;;;;;5032871;28;19952;-77
2023/03/13 10:53:19;;;;;;;;;;;;;;;;;;5015282;28;19913;-76
2023/03/13 10:55:44;;;;;;;;;;;;;;;;;;5024255;28;20459;-77
2023/03/13 10:58:09;;;;;;;;;;;;;;;;;;5015195;28;19914;-77
2023/03/13 11:00:35;;;;;;;;;;;;;;;;;;5015590;28;19924;-77
2023/03/13 11:03:00;;;;;;;;;;;;;;;;;;5014210;28;19960;-77
2023/03/13 11:05:27;;;;;;;;;;;;;;;;;;5012683;28;20269;-78
2023/03/13 11:07:52;;;;;;;;;;;;;;;;;;5004388;28;19921;-77
2023/03/13 11:10:18;;;;;;;;;;;;;;;;;;5005578;28;19913;-77
2023/03/13 11:12:43;;;;;;;;;;;;;;;;;;5014076;28;19952;-78
2023/03/13 11:15:08;;;;;;;;;;;;;;;;;;5014770;28;20270;-78
2023/03/13 11:17:34;;;;;;;;;;;;;;;;;;5013428;28;19913;-78
2023/03/13 11:19:59;;;;;;;;;;;;;;;;;;5008298;28;19913;-78
2023/03/13 11:22:25;;;;;;;;;;;;;;;;;;5015981;28;19914;-77
2023/03/13 11:24:50;;;;;;;;;;;;;;;;;;5014798;28;19924;-78
2023/03/13 11:27:16;;;;;;;;;;;;;;;;;;5014025;28;19928;-78
2023/03/13 11:29:41;;;;;;;;;;;;;;;;;;5013962;28;20004;-78
2023/03/13 11:32:06;;;;;;;;;;;;;;;;;;5013040;28;20008;-78
2023/03/13 11:34:32;;;;;;;;;;;;;;;;;;5013789;28;19929;-77
2023/03/13 11:36:57;;;;;;;;;;;;;;;;;;5013147;28;19922;-78
2023/03/13 11:39:23;;;;;;;;;;;;;;;;;;5014500;28;20292;-77
2023/03/13 11:41:48;;;;;;;;;;;;;;;;;;5012373;28;19972;-77
2023/03/13 11:44:14;;;;;;;;;;;;;;;;;;5012519;28;20377;-77
2023/03/13 11:46:39;;;;;;;;;;;;;;;;;;5013468;28;19913;-78
2023/03/13 11:49:05;;;;;;;;;;;;;;;;;;5000973;28;19909;-80
2023/03/13 11:51:30;;;;;;;;;;;;;;;;;;5011874;28;19920;-81
2023/03/13 11:53:56;;;;;;;;;;;;;;;;;;5023718;28;19977;-81
2023/03/13 11:56:21;;;;;;;;;;;;;;;;;;4997657;28;19914;-81
2023/03/13 11:58:46;;;;;;;;;;;;;;;;;;5003499;28;19921;-80
2023/03/13 12:01:12;;;;;;;;;;;;;;;;;;5019695;28;19921;-81
2023/03/13 12:03:37;;;;;;;;;;;;;;;;;;5016473;28;20373;-80
2023/03/13 12:06:03;;;;;;;;;;;;;;;;;;5015529;28;19952;-80
2023/03/13 12:08:28;;;;;;;;;;;;;;;;;;5008714;28;19925;-80
2023/03/13 12:10:54;;;;;;;;;;;;;;;;;;5006303;28;19917;-80
2023/03/13 12:13:19;;;;;;;;;;;;;;;;;;5019094;28;19963;-81
2023/03/13 12:15:44;;;;;;;;;;;;;;;;;;5009476;28;19925;-80
2023/03/13 12:18:10;;;;;;;;;;;;;;;;;;4995270;28;19914;-81
2023/03/13 12:20:35;;;;;;;;;;;;;;;;;;5008809;28;19923;-81
2023/03/13 12:23:01;;;;;;;;;;;;;;;;;;5018514;28;19910;-81
2023/03/13 12:25:27;;;;;;;;;;;;;;;;;;5008611;28;19918;-80
2023/03/13 12:27:53;;;;;;;;;;;;;;;;;;5011239;28;20377;-79
2023/03/13 12:30:18;;;;;;;;;;;;;;;;;;5024369;28;19921;-81
2023/03/13 12:32:44;;;;;;;;;;;;;;;;;;5407912;23;19932;-79
2023/03/13 12:35:10;;;;;;;;;;;;;;;;;;4984536;28;19949;-81
2023/03/13 12:37:35;;;;;;;;;;;;;;;;;;4983806;28;19910;-82
2023/03/13 12:40:01;;;;;;;;;;;;;;;;;;5008419;28;20304;-81
2023/03/13 12:42:32;;;;;;;;;;;;;;;;;;5054095;28;20060;-86
2023/03/13 12:45:25;;;;;;;;;;;;;;;;;;5027636;28;19916;-86
2023/03/13 12:47:51;;;;;;;;;;;;;;;;;;5007593;28;19916;-84
2023/03/13 12:50:17;;;;;;;;;;;;;;;;;;5040543;28;19921;-86
2023/03/13 12:55:25;;;;;;;;;;;;;;;;;;6151662;23;20005;-81
2023/03/13 12:57:54;;;;;;;;;;;;;;;;;;5775800;22;20817;-81
2023/03/13 13:00:22;;;;;;;;;;;;;;;;;;5009012;28;19906;-84
2023/03/13 13:11:27;;;;;;;;;;;;;;;;;;5837152;22;19924;-81
2023/03/13 13:14:11;;;;;;;;;;;;;;;;;;5056349;23;19960;-83
2023/03/13 13:16:38;;;;;;;;;;;;;;;;;;5057081;28;19905;-82
2023/03/13 13:19:07;;;;;;;;;;;;;;;;;;5040052;28;19909;-84
2023/03/13 13:21:33;;;;;;;;;;;;;;;;;;5031219;28;19969;-83
2023/03/13 13:24:01;;;;;;;;;;;;;;;;;;5060571;28;19964;-84
2023/03/13 13:26:38;;;;;;;;;;;;;;;;;;5031387;28;19905;-82
2023/03/13 13:29:04;;;;;;;;;;;;;;;;;;5080699;28;19917;-82
2023/03/13 13:31:32;;;;;;;;;;;;;;;;;;5038562;28;19958;-82
2023/03/13 13:33:57;;;;;;;;;;;;;;;;;;5030575;28;19897;-84
2023/03/13 13:36:23;;;;;;;;;;;;;;;;;;5047215;28;19920;-83
2023/03/13 13:38:49;;;;;;;;;;;;;;;;;;5063481;28;19904;-84
2023/03/13 13:41:14;;;;;;;;;;;;;;;;;;5062250;28;19913;-83
2023/03/13 13:43:43;;;;;;;;;;;;;;;;;;5063562;28;20302;-84
2023/03/13 13:46:09;;;;;;;;;;;;;;;;;;5080945;28;19928;-83
2023/03/13 13:48:37;;;;;;;;;;;;;;;;;;5062396;28;19964;-84
2023/03/13 13:51:03;;;;;;;;;;;;;;;;;;5044374;28;19967;-83
2023/03/13 13:53:29;;;;;;;;;;;;;;;;;;5028376;28;19917;-84
2023/03/13 13:55:57;;;;;;;;;;;;;;;;;;5058858;28;19924;-83
2023/03/13 13:58:23;;;;;;;;;;;;;;;;;;5201750;23;19926;-83
2023/03/13 14:00:48;;;;;;;;;;;;;;;;;;5004288;28;19918;-82
2023/03/13 14:03:14;;;;;;;;;;;;;;;;;;5020855;28;19937;-83
2023/03/13 14:05:40;;;;;;;;;;;;;;;;;;4988428;28;19933;-83
2023/03/13 14:08:08;;;;;;;;;;;;;;;;;;5005859;28;19906;-82
2023/03/13 14:10:33;;;;;;;;;;;;;;;;;;5015078;28;19926;-83
2023/03/13 14:12:59;;;;;;;;;;;;;;;;;;5002133;28;19898;-83
2023/03/13 14:15:25;;;;;;;;;;;;;;;;;;5002066;28;19909;-82
2023/03/13 14:17:50;;;;;;;;;;;;;;;;;;5017875;28;19921;-84
2023/03/13 14:20:16;;;;;;;;;;;;;;;;;;5002398;28;19914;-82
2023/03/13 14:22:41;;;;;;;;;;;;;;;;;;5018487;28;19902;-82
2023/03/13 14:25:07;;;;;;;;;;;;;;;;;;5002207;28;19965;-83
2023/03/13 14:27:32;;;;;;;;;;;;;;;;;;5002359;28;19913;-83
2023/03/13 14:29:58;;;;;;;;;;;;;;;;;;5016980;28;19921;-82
2023/03/13 14:32:23;;;;;;;;;;;;;;;;;;5028388;28;19914;-82
2023/03/13 14:34:49;;;;;;;;;;;;;;;;;;5010853;28;19921;-81
2023/03/13 14:37:15;;;;;;;;;;;;;;;;;;4990933;28;19945;-82
2023/03/13 14:39:40;;;;;;;;;;;;;;;;;;4992283;28;19914;-82
2023/03/13 14:42:06;;;;;;;;;;;;;;;;;;4998065;28;19918;-81
2023/03/13 14:44:33;;;;;;;;;;;;;;;;;;4996932;28;19918;-81
2023/03/13 14:46:59;;;;;;;;;;;;;;;;;;4991840;28;19910;-82
2023/03/13 14:49:24;;;;;;;;;;;;;;;;;;5011512;28;20024;-81
2023/03/13 14:51:50;;;;;;;;;;;;;;;;;;5009981;28;19932;-82
2023/03/13 14:54:15;;;;;;;;;;;;;;;;;;5005925;28;19914;-82
2023/03/13 14:56:41;;;;;;;;;;;;;;;;;;5004361;28;19975;-81
2023/03/13 14:59:06;;;;;;;;;;;;;;;;;;4997303;28;19926;-82
2023/03/13 15:01:32;;;;;;;;;;;;;;;;;;5024901;28;20333;-81
2023/03/13 15:03:58;;;;;;;;;;;;;;;;;;5008370;28;19918;-82
2023/03/13 15:06:23;;;;;;;;;;;;;;;;;;5008535;28;19956;-81
2023/03/13 15:08:50;;;;;;;;;;;;;;;;;;5011366;28;20017;-82
2023/03/13 15:11:16;;;;;;;;;;;;;;;;;;4995966;28;20365;-83
2023/03/13 15:13:41;;;;;;;;;;;;;;;;;;5002189;28;19921;-85
2023/03/13 15:16:07;;;;;;;;;;;;;;;;;;4997784;28;19914;-83
2023/03/13 15:18:32;;;;;;;;;;;;;;;;;;5008250;28;19921;-82
2023/03/13 15:20:58;;;;;;;;;;;;;;;;;;5010933;28;19914;-81
2023/03/13 15:23:24;;;;;;;;;;;;;;;;;;4997904;28;19921;-84
2023/03/13 15:25:49;;;;;;;;;;;;;;;;;;4976407;28;19924;-83
2023/03/13 15:28:15;;;;;;;;;;;;;;;;;;5011297;28;19921;-83
2023/03/13 15:30:41;;;;;;;;;;;;;;;;;;5016303;28;19914;-83
2023/03/13 15:33:06;;;;;;;;;;;;;;;;;;4981238;28;20022;-81
2023/03/13 15:35:32;;;;;;;;;;;;;;;;;;4996260;28;19918;-80
2023/03/13 15:37:58;;;;;;;;;;;;;;;;;;4979455;28;19981;-80
2023/03/13 15:40:23;;;;;;;;;;;;;;;;;;4996729;28;20380;-80
2023/03/13 15:42:48;;;;;;;;;;;;;;;;;;4992258;28;19914;-79
2023/03/13 15:45:14;;;;;;;;;;;;;;;;;;4991476;28;19941;-79
2023/03/13 15:47:39;;;;;;;;;;;;;;;;;;4976161;28;20031;-79
2023/03/13 15:50:05;;;;;;;;;;;;;;;;;;4988410;28;19898;-83
2023/03/13 15:52:33;;;;;;;;;;;;;;;;;;5118647;23;19930;-83
2023/03/13 15:55:00;;;;;;;;;;;;;;;;;;4982909;28;19918;-83
2023/03/13 15:57:25;;;;;;;;;;;;;;;;;;4985263;28;19914;-82
2023/03/13 15:59:51;;;;;;;;;;;;;;;;;;5004055;28;19918;-82
2023/03/13 16:02:16;;;;;;;;;;;;;;;;;;5006103;28;19981;-82
2023/03/13 16:04:42;;;;;;;;;;;;;;;;;;4987589;28;19924;-83
2023/03/13 16:07:07;;;;;;;;;;;;;;;;;;4972362;28;19910;-81
2023/03/13 16:09:32;;;;;;;;;;;;;;;;;;4983539;28;19914;-84
2023/03/13 16:11:58;;;;;;;;;;;;;;;;;;4978085;28;20325;-84
2023/03/13 16:14:26;;;;;;;;;;;;;;;;;;4983603;28;19923;-83
2023/03/13 16:16:52;;;;;;;;;;;;;;;;;;4992945;28;19914;-82
2023/03/13 16:19:18;;;;;;;;;;;;;;;;;;4992359;28;19913;-82
2023/03/13 16:21:47;;;;;;;;;;;;;;;;;;5008854;28;19914;-82
2023/03/13 16:24:13;;;;;;;;;;;;;;;;;;4992769;28;19914;-83
2023/03/13 16:26:38;;;;;;;;;;;;;;;;;;5006683;28;19964;-84
2023/03/13 16:29:05;;;;;;;;;;;;;;;;;;5004660;28;20664;-84
2023/03/13 16:31:31;;;;;;;;;;;;;;;;;;4980935;28;19937;-84
2023/03/13 16:33:56;;;;;;;;;;;;;;;;;;4999172;28;19914;-86
2023/03/13 16:36:22;;;;;;;;;;;;;;;;;;4976359;28;19913;-88
2023/03/13 16:38:48;;;;;;;;;;;;;;;;;;4976582;28;20417;-89
2023/03/13 16:41:13;;;;;;;;;;;;;;;;;;4976568;28;19972;-86
2023/03/13 16:43:39;;;;;;;;;;;;;;;;;;5008160;28;19977;-84
2023/03/13 16:46:05;;;;;;;;;;;;;;;;;;4992518;28;19925;-81
2023/03/13 16:48:30;;;;;;;;;;;;;;;;;;4998376;28;19956;-88
2023/03/13 16:50:56;;;;;;;;;;;;;;;;;;4963918;28;19914;-88
2023/03/13 16:53:21;;;;;;;;;;;;;;;;;;4962499;28;20296;-83
2023/03/13 16:55:47;;;;;;;;;;;;;;;;;;4980534;28;20457;-80
2023/03/13 16:58:12;;;;;;;;;;;;;;;;;;4983539;28;20366;-81